sensor_id;sensor_type;location;lat;lon;timestamp;pressure;altitude;pressure_sealevel;temperature;humidity
56632;BME280;42503;39.928;-75.152;2022-10-29T00:00:21;103103.94;;;21.95;44.96
56632;BME280;42503;39.928;-75.152;2022-10-29T00:02:23;103108.41;;;21.96;44.90
56632;BME280;42503;39.928;-75.152;2022-10-29T00:04:27;103098.81;;;21.92;45.12
56632;BME280;42503;39.928;-75.152;2022-10-29T00:06:28;103106.72;;;21.95;44.97
56632;BME280;42503;39.928;-75.152;2022-10-29T00:08:31;103107.78;;;21.94;44.85
56632;BME280;42503;39.928;-75.152;2022-10-29T00:10:35;103089.56;;;21.79;45.28
56632;BME280;42503;39.928;-75.152;2022-10-29T00:12:37;103113.38;;;21.94;44.85
56632;BME280;42503;39.928;-75.152;2022-10-29T00:14:38;103115.09;;;21.95;45.06
56632;BME280;42503;39.928;-75.152;2022-10-29T00:16:39;103118.09;;;21.93;44.91
56632;BME280;42503;39.928;-75.152;2022-10-29T00:18:43;103109.72;;;21.93;44.97
56632;BME280;42503;39.928;-75.152;2022-10-29T00:20:45;103120.88;;;21.93;44.92
56632;BME280;42503;39.928;-75.152;2022-10-29T00:22:48;103121.38;;;21.90;45.12
56632;BME280;42503;39.928;-75.152;2022-10-29T00:24:52;103133.13;;;21.92;45.07
56632;BME280;42503;39.928;-75.152;2022-10-29T00:26:53;103136.75;;;21.93;44.82
56632;BME280;42503;39.928;-75.152;2022-10-29T00:28:55;103118.66;;;21.83;44.91
56632;BME280;42503;39.928;-75.152;2022-10-29T00:31:03;103092.50;;;21.66;45.07
56632;BME280;42503;39.928;-75.152;2022-10-29T00:33:04;103135.31;;;21.90;44.83
56632;BME280;42503;39.928;-75.152;2022-10-29T00:35:05;103137.22;;;21.90;45.15
56632;BME280;42503;39.928;-75.152;2022-10-29T00:37:09;103151.16;;;21.90;45.23
56632;BME280;42503;39.928;-75.152;2022-10-29T00:39:14;103126.03;;;21.78;44.95
56632;BME280;42503;39.928;-75.152;2022-10-29T00:41:18;103102.22;;;21.64;45.27
56632;BME280;42503;39.928;-75.152;2022-10-29T00:43:22;103141.09;;;21.89;45.02
56632;BME280;42503;39.928;-75.152;2022-10-29T00:45:23;103144.72;;;21.89;45.02
56632;BME280;42503;39.928;-75.152;2022-10-29T00:47:30;103157.81;;;21.89;45.11
56632;BME280;42503;39.928;-75.152;2022-10-29T00:49:34;103160.84;;;21.87;45.22
56632;BME280;42503;39.928;-75.152;2022-10-29T00:51:37;103167.28;;;21.88;45.00
56632;BME280;42503;39.928;-75.152;2022-10-29T00:53:43;103175.88;;;21.86;45.19
56632;BME280;42503;39.928;-75.152;2022-10-29T00:55:51;103162.16;;;21.85;45.11
56632;BME280;42503;39.928;-75.152;2022-10-29T00:57:53;103169.47;;;21.86;45.29
56632;BME280;42503;39.928;-75.152;2022-10-29T00:59:56;103159.16;;;21.86;45.32
56632;BME280;42503;39.928;-75.152;2022-10-29T01:01:57;103143.00;;;21.76;45.31
56632;BME280;42503;39.928;-75.152;2022-10-29T01:03:59;103135.69;;;21.75;45.10
56632;BME280;42503;39.928;-75.152;2022-10-29T01:06:01;103151.50;;;21.81;45.12
56632;BME280;42503;39.928;-75.152;2022-10-29T01:08:06;103158.13;;;21.80;45.34
56632;BME280;42503;39.928;-75.152;2022-10-29T01:10:11;103174.41;;;21.83;45.10
56632;BME280;42503;39.928;-75.152;2022-10-29T01:15:00;103168.56;;;21.85;44.90
56632;BME280;42503;39.928;-75.152;2022-10-29T01:17:26;103162.16;;;21.85;45.06
56632;BME280;42503;39.928;-75.152;2022-10-29T01:27:22;103162.00;;;21.79;45.21
56632;BME280;42503;39.928;-75.152;2022-10-29T01:34:21;103154.50;;;21.80;45.39
56632;BME280;42503;39.928;-75.152;2022-10-29T01:41:18;103155.84;;;21.77;45.21
56632;BME280;42503;39.928;-75.152;2022-10-29T01:43:24;103151.09;;;21.78;45.07
56632;BME280;42503;39.928;-75.152;2022-10-29T01:45:38;103112.97;;;21.60;45.00
56632;BME280;42503;39.928;-75.152;2022-10-29T01:47:46;103147.63;;;21.82;45.07
56632;BME280;42503;39.928;-75.152;2022-10-29T01:49:53;103124.19;;;21.72;44.86
56632;BME280;42503;39.928;-75.152;2022-10-29T01:51:59;103142.50;;;21.79;45.09
56632;BME280;42503;39.928;-75.152;2022-10-29T01:54:06;103145.28;;;21.79;45.19
56632;BME280;42503;39.928;-75.152;2022-10-29T01:56:11;102707.09;;;18.87;44.80
56632;BME280;42503;39.928;-75.152;2022-10-29T01:58:12;103144.69;;;21.77;45.38
56632;BME280;42503;39.928;-75.152;2022-10-29T02:00:16;103147.47;;;21.77;44.94
56632;BME280;42503;39.928;-75.152;2022-10-29T02:02:46;103149.88;;;21.74;45.24
56632;BME280;42503;39.928;-75.152;2022-10-29T02:05:16;103154.13;;;21.76;45.18
56632;BME280;42503;39.928;-75.152;2022-10-29T02:07:36;103155.84;;;21.77;45.16
56632;BME280;42503;39.928;-75.152;2022-10-29T02:10:02;103160.78;;;21.75;44.94
56632;BME280;42503;39.928;-75.152;2022-10-29T02:12:21;103125.66;;;21.56;45.13
56632;BME280;42503;39.928;-75.152;2022-10-29T02:14:39;103159.06;;;21.74;45.25
56632;BME280;42503;39.928;-75.152;2022-10-29T02:16:45;103126.09;;;21.53;45.22
56632;BME280;42503;39.928;-75.152;2022-10-29T02:18:47;103115.91;;;21.47;45.32
56632;BME280;42503;39.928;-75.152;2022-10-29T02:20:49;103163.56;;;21.75;45.17
56632;BME280;42503;39.928;-75.152;2022-10-29T02:22:50;103163.56;;;21.75;45.30
56632;BME280;42503;39.928;-75.152;2022-10-29T02:24:54;103168.28;;;21.75;45.36
56632;BME280;42503;39.928;-75.152;2022-10-29T02:26:55;103167.44;;;21.74;45.25
56632;BME280;42503;39.928;-75.152;2022-10-29T02:28:57;103173.00;;;21.74;45.18
56632;BME280;42503;39.928;-75.152;2022-10-29T02:30:59;103178.59;;;21.74;45.17
56632;BME280;42503;39.928;-75.152;2022-10-29T02:33:00;103177.81;;;21.67;45.20
56632;BME280;42503;39.928;-75.152;2022-10-29T02:35:01;103186.34;;;21.72;45.15
56632;BME280;42503;39.928;-75.152;2022-10-29T02:37:03;103183.41;;;21.67;45.20
56632;BME280;42503;39.928;-75.152;2022-10-29T02:39:07;103152.28;;;21.52;44.96
56632;BME280;42503;39.928;-75.152;2022-10-29T02:41:11;103194.69;;;21.72;45.29
56632;BME280;42503;39.928;-75.152;2022-10-29T02:43:12;103195.75;;;21.71;45.13
56632;BME280;42503;39.928;-75.152;2022-10-29T02:45:16;103197.47;;;21.72;45.12
56632;BME280;42503;39.928;-75.152;2022-10-29T02:47:17;103181.53;;;21.61;45.24
56632;BME280;42503;39.928;-75.152;2022-10-29T02:49:19;103197.78;;;21.64;45.11
56632;BME280;42503;39.928;-75.152;2022-10-29T02:51:20;103204.13;;;21.71;45.22
56632;BME280;42503;39.928;-75.152;2022-10-29T02:53:24;103190.19;;;21.71;45.29
56632;BME280;42503;39.928;-75.152;2022-10-29T02:55:28;103180.13;;;21.70;45.13
56632;BME280;42503;39.928;-75.152;2022-10-29T02:57:32;103180.97;;;21.71;45.08
56632;BME280;42503;39.928;-75.152;2022-10-29T02:59:34;103180.13;;;21.70;45.28
56632;BME280;42503;39.928;-75.152;2022-10-29T03:01:35;103171.78;;;21.70;45.10
56632;BME280;42503;39.928;-75.152;2022-10-29T03:03:36;103179.53;;;21.68;45.40
56632;BME280;42503;39.928;-75.152;2022-10-29T03:05:37;103164.50;;;21.69;45.27
56632;BME280;42503;39.928;-75.152;2022-10-29T03:07:39;103164.50;;;21.69;45.17
56632;BME280;42503;39.928;-75.152;2022-10-29T03:09:45;103170.53;;;21.66;45.38
56632;BME280;42503;39.928;-75.152;2022-10-29T03:11:49;103168.44;;;21.62;45.18
56632;BME280;42503;39.928;-75.152;2022-10-29T03:13:51;103169.69;;;21.66;45.08
56632;BME280;42503;39.928;-75.152;2022-10-29T03:15:52;103153.97;;;21.53;45.00
56632;BME280;42503;39.928;-75.152;2022-10-29T03:17:53;103158.09;;;21.50;45.04
56632;BME280;42503;39.928;-75.152;2022-10-29T03:19:54;103177.97;;;21.54;45.29
56632;BME280;42503;39.928;-75.152;2022-10-29T03:21:58;103191.81;;;21.61;45.20
56632;BME280;42503;39.928;-75.152;2022-10-29T03:24:00;103197.09;;;21.69;45.26
56632;BME280;42503;39.928;-75.152;2022-10-29T03:26:01;103197.94;;;21.69;45.06
56632;BME280;42503;39.928;-75.152;2022-10-29T03:28:03;103196.25;;;21.68;45.38
56632;BME280;42503;39.928;-75.152;2022-10-29T03:30:07;103190.66;;;21.68;45.06
56632;BME280;42503;39.928;-75.152;2022-10-29T03:32:09;103187.25;;;21.66;45.34
56632;BME280;42503;39.928;-75.152;2022-10-29T03:34:12;103189.34;;;21.71;45.05
56632;BME280;42503;39.928;-75.152;2022-10-29T03:36:14;103185.50;;;21.72;45.18
56632;BME280;42503;39.928;-75.152;2022-10-29T03:38:15;103172.72;;;21.64;44.79
56632;BME280;42503;39.928;-75.152;2022-10-29T03:40:17;103164.50;;;21.69;45.01
56632;BME280;42503;39.928;-75.152;2022-10-29T03:42:18;103163.91;;;21.67;45.25
56632;BME280;42503;39.928;-75.152;2022-10-29T03:44:20;103160.22;;;21.67;45.41
56632;BME280;42503;39.928;-75.152;2022-10-29T03:46:24;103157.69;;;21.65;45.10
56632;BME280;42503;39.928;-75.152;2022-10-29T03:48:31;103144.84;;;21.64;45.01
56632;BME280;42503;39.928;-75.152;2022-10-29T03:50:33;103134.63;;;21.58;45.29
56632;BME280;42503;39.928;-75.152;2022-10-29T03:52:34;103152.13;;;21.65;44.97
56632;BME280;42503;39.928;-75.152;2022-10-29T03:54:36;103154.91;;;21.65;45.02
56632;BME280;42503;39.928;-75.152;2022-10-29T03:56:40;103138.97;;;21.54;45.27
56632;BME280;42503;39.928;-75.152;2022-10-29T03:58:51;103160.47;;;21.65;45.09
56632;BME280;42503;39.928;-75.152;2022-10-29T04:00:59;103143.59;;;21.60;45.22
56632;BME280;42503;39.928;-75.152;2022-10-29T04:03:01;103145.94;;;21.63;45.40
56632;BME280;42503;39.928;-75.152;2022-10-29T04:05:02;103118.84;;;21.52;45.01
56632;BME280;42503;39.928;-75.152;2022-10-29T04:07:04;103138.44;;;21.64;45.26
56632;BME280;42503;39.928;-75.152;2022-10-29T04:09:05;103132.84;;;21.64;45.02
56632;BME280;42503;39.928;-75.152;2022-10-29T04:11:11;103082.63;;;21.34;45.36
56632;BME280;42503;39.928;-75.152;2022-10-29T04:13:13;103104.75;;;21.47;45.04
56632;BME280;42503;39.928;-75.152;2022-10-29T04:15:15;103124.69;;;21.62;45.13
56632;BME280;42503;39.928;-75.152;2022-10-29T04:17:16;103130.28;;;21.62;44.96
56632;BME280;42503;39.928;-75.152;2022-10-29T04:19:18;103129.44;;;21.62;45.04
56632;BME280;42503;39.928;-75.152;2022-10-29T04:21:21;103112.41;;;21.51;45.02
56632;BME280;42503;39.928;-75.152;2022-10-29T04:23:23;103134.63;;;21.58;45.11
56632;BME280;42503;39.928;-75.152;2022-10-29T04:25:24;103145.31;;;21.61;45.42
56632;BME280;42503;39.928;-75.152;2022-10-29T04:27:26;103130.78;;;21.59;45.10
56632;BME280;42503;39.928;-75.152;2022-10-29T04:29:27;103145.31;;;21.61;45.27
56632;BME280;42503;39.928;-75.152;2022-10-29T04:31:28;103140.81;;;21.60;45.08
56632;BME280;42503;39.928;-75.152;2022-10-29T04:33:29;103109.56;;;21.40;45.19
56632;BME280;42503;39.928;-75.152;2022-10-29T04:35:31;103128.44;;;21.56;45.17
56632;BME280;42503;39.928;-75.152;2022-10-29T04:37:32;103139.13;;;21.59;45.20
56632;BME280;42503;39.928;-75.152;2022-10-29T04:39:36;103132.06;;;21.56;45.09
56632;BME280;42503;39.928;-75.152;2022-10-29T04:41:37;103137.19;;;21.60;45.41
56632;BME280;42503;39.928;-75.152;2022-10-29T04:43:39;103136.34;;;21.59;45.31
56632;BME280;42503;39.928;-75.152;2022-10-29T04:45:40;103132.47;;;21.60;44.97
56632;BME280;42503;39.928;-75.152;2022-10-29T04:47:41;103129.69;;;21.60;45.33
56632;BME280;42503;39.928;-75.152;2022-10-29T04:49:42;103124.94;;;21.61;45.37
56632;BME280;42503;39.928;-75.152;2022-10-29T04:51:47;103067.25;;;21.31;45.03
56632;BME280;42503;39.928;-75.152;2022-10-29T04:53:48;103109.31;;;21.60;45.02
56632;BME280;42503;39.928;-75.152;2022-10-29T04:55:50;103096.25;;;21.60;45.32
56632;BME280;42503;39.928;-75.152;2022-10-29T04:57:51;103099.88;;;21.61;45.15
56632;BME280;42503;39.928;-75.152;2022-10-29T04:59:52;103098.19;;;21.60;44.97
56632;BME280;42503;39.928;-75.152;2022-10-29T05:01:53;103111.25;;;21.59;45.23
56632;BME280;42503;39.928;-75.152;2022-10-29T05:03:55;103083.88;;;21.38;45.05
56632;BME280;42503;39.928;-75.152;2022-10-29T05:05:56;103092.31;;;21.49;44.94
56632;BME280;42503;39.928;-75.152;2022-10-29T05:08:01;103102.50;;;21.55;45.09
56632;BME280;42503;39.928;-75.152;2022-10-29T05:10:03;103106.78;;;21.58;44.91
56632;BME280;42503;39.928;-75.152;2022-10-29T05:12:06;103099.47;;;21.57;45.25
56632;BME280;42503;39.928;-75.152;2022-10-29T05:14:09;103101.66;;;21.55;45.14
56632;BME280;42503;39.928;-75.152;2022-10-29T05:16:16;103119.13;;;21.62;45.10
56632;BME280;42503;39.928;-75.152;2022-10-29T05:18:17;103115.28;;;21.63;45.12
56632;BME280;42503;39.928;-75.152;2022-10-29T05:20:22;103128.59;;;21.61;44.86
56632;BME280;42503;39.928;-75.152;2022-10-29T05:22:24;103123.50;;;21.58;45.16
56632;BME280;42503;39.928;-75.152;2022-10-29T05:24:25;103122.63;;;21.57;45.20
56632;BME280;42503;39.928;-75.152;2022-10-29T05:26:29;103107.84;;;21.57;45.24
56632;BME280;42503;39.928;-75.152;2022-10-29T05:28:31;103109.19;;;21.54;45.37
56632;BME280;42503;39.928;-75.152;2022-10-29T05:30:34;103102.28;;;21.57;45.09
56632;BME280;42503;39.928;-75.152;2022-10-29T05:32:38;103110.16;;;21.60;44.86
56632;BME280;42503;39.928;-75.152;2022-10-29T05:34:39;103112.34;;;21.58;45.12
56632;BME280;42503;39.928;-75.152;2022-10-29T05:36:43;103089.13;;;21.46;45.01
56632;BME280;42503;39.928;-75.152;2022-10-29T05:38:44;103114.50;;;21.56;45.18
56632;BME280;42503;39.928;-75.152;2022-10-29T05:40:46;103112.81;;;21.55;45.11
56632;BME280;42503;39.928;-75.152;2022-10-29T05:42:47;103111.56;;;21.51;45.20
56632;BME280;42503;39.928;-75.152;2022-10-29T05:44:48;103115.59;;;21.55;45.17
56632;BME280;42503;39.928;-75.152;2022-10-29T05:46:52;103112.81;;;21.55;45.22
56632;BME280;42503;39.928;-75.152;2022-10-29T05:48:57;103116.69;;;21.54;44.99
56632;BME280;42503;39.928;-75.152;2022-10-29T05:50:58;103121.41;;;21.53;44.91
56632;BME280;42503;39.928;-75.152;2022-10-29T05:53:04;103104.31;;;21.50;45.36
56632;BME280;42503;39.928;-75.152;2022-10-29T05:55:06;103107.69;;;21.52;45.15
56632;BME280;42503;39.928;-75.152;2022-10-29T05:57:08;103101.03;;;21.53;45.20
56632;BME280;42503;39.928;-75.152;2022-10-29T05:59:12;103100.19;;;21.52;45.16
56632;BME280;42503;39.928;-75.152;2022-10-29T06:01:19;103098.25;;;21.53;44.97
56632;BME280;42503;39.928;-75.152;2022-10-29T06:03:21;103092.91;;;21.51;44.96
56632;BME280;42503;39.928;-75.152;2022-10-29T06:05:22;103099.34;;;21.52;44.92
56632;BME280;42503;39.928;-75.152;2022-10-29T06:07:26;103101.28;;;21.51;45.34
56632;BME280;42503;39.928;-75.152;2022-10-29T06:09:28;103099.34;;;21.52;45.29
56632;BME280;42503;39.928;-75.152;2022-10-29T06:11:29;103094.84;;;21.51;45.08
56632;BME280;42503;39.928;-75.152;2022-10-29T06:13:30;103086.75;;;21.49;45.16
56632;BME280;42503;39.928;-75.152;2022-10-29T06:15:31;103084.56;;;21.51;45.02
56632;BME280;42503;39.928;-75.152;2022-10-29T06:17:33;103092.91;;;21.51;45.26
56632;BME280;42503;39.928;-75.152;2022-10-29T06:19:34;103092.53;;;21.48;45.29
56632;BME280;42503;39.928;-75.152;2022-10-29T06:21:35;103087.59;;;21.50;45.02
56632;BME280;42503;39.928;-75.152;2022-10-29T06:23:37;103096.16;;;21.48;45.22
56632;BME280;42503;39.928;-75.152;2022-10-29T06:25:38;103070.41;;;21.35;45.05
56632;BME280;42503;39.928;-75.152;2022-10-29T06:27:39;103088.44;;;21.50;45.27
56632;BME280;42503;39.928;-75.152;2022-10-29T06:29:40;103094.84;;;21.51;45.18
56632;BME280;42503;39.928;-75.152;2022-10-29T06:31:42;103100.44;;;21.51;45.33
56632;BME280;42503;39.928;-75.152;2022-10-29T06:33:43;103095.31;;;21.48;44.93
56632;BME280;42503;39.928;-75.152;2022-10-29T06:35:45;103093.16;;;21.50;44.99
56632;BME280;42503;39.928;-75.152;2022-10-29T06:37:46;103084.03;;;21.43;45.24
56632;BME280;42503;39.928;-75.152;2022-10-29T06:39:47;103105.16;;;21.50;44.89
56632;BME280;42503;39.928;-75.152;2022-10-29T06:41:49;103094.25;;;21.49;45.30
56632;BME280;42503;39.928;-75.152;2022-10-29T06:43:50;103109.88;;;21.50;45.20
56632;BME280;42503;39.928;-75.152;2022-10-29T06:45:51;103104.31;;;21.50;45.04
56632;BME280;42503;39.928;-75.152;2022-10-29T06:47:55;103107.09;;;21.50;45.18
56632;BME280;42503;39.928;-75.152;2022-10-29T06:49:56;103113.50;;;21.50;45.04
56632;BME280;42503;39.928;-75.152;2022-10-29T06:51:58;103109.88;;;21.50;45.09
56632;BME280;42503;39.928;-75.152;2022-10-29T06:53:59;103109.88;;;21.50;45.14
56632;BME280;42503;39.928;-75.152;2022-10-29T06:56:00;103106.44;;;21.48;45.23
56632;BME280;42503;39.928;-75.152;2022-10-29T07:00:08;103092.16;;;21.44;45.18
56632;BME280;42503;39.928;-75.152;2022-10-29T07:02:11;103096.16;;;21.48;45.00
56632;BME280;42503;39.928;-75.152;2022-10-29T07:04:12;103099.19;;;21.47;45.00
56632;BME280;42503;39.928;-75.152;2022-10-29T07:06:14;103095.81;;;21.45;45.14
56632;BME280;42503;39.928;-75.152;2022-10-29T07:08:15;103056.78;;;21.26;45.18
56632;BME280;42503;39.928;-75.152;2022-10-29T07:10:16;103070.19;;;21.36;45.29
56632;BME280;42503;39.928;-75.152;2022-10-29T07:12:20;103073.72;;;21.43;45.27
56632;BME280;42503;39.928;-75.152;2022-10-29T07:14:22;103073.28;;;21.46;44.99
56632;BME280;42503;39.928;-75.152;2022-10-29T07:16:26;103071.34;;;21.47;44.84
56632;BME280;42503;39.928;-75.152;2022-10-29T07:18:27;103069.63;;;21.46;44.93
56632;BME280;42503;39.928;-75.152;2022-10-29T07:20:31;103061.53;;;21.44;45.01
56632;BME280;42503;39.928;-75.152;2022-10-29T07:22:33;103068.53;;;21.47;45.27
56632;BME280;42503;39.928;-75.152;2022-10-29T07:24:34;103071.34;;;21.47;45.12
56632;BME280;42503;39.928;-75.152;2022-10-29T07:26:37;103064.06;;;21.46;45.32
56632;BME280;42503;39.928;-75.152;2022-10-29T07:28:40;103066.22;;;21.44;45.20
56632;BME280;42503;39.928;-75.152;2022-10-29T07:30:43;103061.03;;;21.47;45.00
56632;BME280;42503;39.928;-75.152;2022-10-29T07:32:44;103061.44;;;21.51;45.10
56632;BME280;42503;39.928;-75.152;2022-10-29T07:34:48;103061.28;;;21.46;45.16
56632;BME280;42503;39.928;-75.152;2022-10-29T07:36:50;103068.31;;;21.48;44.84
56632;BME280;42503;39.928;-75.152;2022-10-29T07:38:51;103069.63;;;21.46;45.14
56632;BME280;42503;39.928;-75.152;2022-10-29T07:40:52;103075.22;;;21.46;45.12
56632;BME280;42503;39.928;-75.152;2022-10-29T07:42:54;103039.59;;;21.29;44.88
56632;BME280;42503;39.928;-75.152;2022-10-29T07:44:55;103056.81;;;21.45;44.86
56632;BME280;42503;39.928;-75.152;2022-10-29T07:46:56;103058.94;;;21.43;44.80
56632;BME280;42503;39.928;-75.152;2022-10-29T07:48:58;103066.22;;;21.44;45.25
56632;BME280;42503;39.928;-75.152;2022-10-29T07:51:04;103056.13;;;21.31;45.09
56632;BME280;42503;39.928;-75.152;2022-10-29T07:53:06;103088.50;;;21.44;44.90
56632;BME280;42503;39.928;-75.152;2022-10-29T07:55:10;103068.41;;;21.42;44.85
56632;BME280;42503;39.928;-75.152;2022-10-29T07:57:11;103066.22;;;21.44;45.00
56632;BME280;42503;39.928;-75.152;2022-10-29T07:59:15;103050.44;;;21.38;44.96
56632;BME280;42503;39.928;-75.152;2022-10-29T08:01:17;103050.00;;;21.41;45.15
56632;BME280;42503;39.928;-75.152;2022-10-29T08:03:21;103040.53;;;21.42;45.02
56632;BME280;42503;39.928;-75.152;2022-10-29T08:05:23;103041.63;;;21.41;44.95
56632;BME280;42503;39.928;-75.152;2022-10-29T08:07:31;103047.81;;;21.43;44.85
56632;BME280;42503;39.928;-75.152;2022-10-29T08:09:37;103046.13;;;21.42;44.92
56632;BME280;42503;39.928;-75.152;2022-10-29T08:11:38;103042.25;;;21.43;45.07
56632;BME280;42503;39.928;-75.152;2022-10-29T08:13:39;103046.13;;;21.42;45.16
56632;BME280;42503;39.928;-75.152;2022-10-29T08:15:47;103059.19;;;21.41;45.08
56632;BME280;42503;39.928;-75.152;2022-10-29T08:17:49;103057.25;;;21.42;45.18
56632;BME280;42503;39.928;-75.152;2022-10-29T08:19:50;103057.25;;;21.42;44.96
56632;BME280;42503;39.928;-75.152;2022-10-29T08:21:51;103055.56;;;21.41;45.03
56632;BME280;42503;39.928;-75.152;2022-10-29T08:23:52;103055.56;;;21.41;44.78
56632;BME280;42503;39.928;-75.152;2022-10-29T08:25:56;103055.56;;;21.41;45.04
56632;BME280;42503;39.928;-75.152;2022-10-29T08:28:02;103055.56;;;21.41;44.85
56632;BME280;42503;39.928;-75.152;2022-10-29T08:30:09;103056.41;;;21.41;44.99
56632;BME280;42503;39.928;-75.152;2022-10-29T08:32:13;103062.81;;;21.42;45.08
56632;BME280;42503;39.928;-75.152;2022-10-29T08:34:15;103056.41;;;21.41;45.04
56632;BME280;42503;39.928;-75.152;2022-10-29T08:36:19;103065.00;;;21.40;44.87
56632;BME280;42503;39.928;-75.152;2022-10-29T08:38:21;103066.06;;;21.39;45.06
56632;BME280;42503;39.928;-75.152;2022-10-29T08:50:33;103079.78;;;21.40;44.69
56632;BME280;42503;39.928;-75.152;2022-10-29T08:52:41;103087.50;;;21.38;44.99
56632;BME280;42503;39.928;-75.152;2022-10-29T08:54:47;103033.88;;;21.06;44.75
56632;BME280;42503;39.928;-75.152;2022-10-29T08:56:53;103094.41;;;21.36;45.15
56632;BME280;42503;39.928;-75.152;2022-10-29T08:59:04;103052.44;;;21.12;45.04
56632;BME280;42503;39.928;-75.152;2022-10-29T09:01:10;103089.91;;;21.35;44.91
56632;BME280;42503;39.928;-75.152;2022-10-29T09:03:12;103054.53;;;21.17;45.04
56632;BME280;42503;39.928;-75.152;2022-10-29T09:05:15;103091.63;;;21.36;44.73
56632;BME280;42503;39.928;-75.152;2022-10-29T09:07:42;103091.22;;;21.32;44.86
56632;BME280;42503;39.928;-75.152;2022-10-29T09:17:29;103079.38;;;21.37;44.63
56632;BME280;42503;39.928;-75.152;2022-10-29T09:24:32;103089.91;;;21.35;44.74
56632;BME280;42503;39.928;-75.152;2022-10-29T09:26:59;103094.00;;;21.32;44.75
56632;BME280;42503;39.928;-75.152;2022-10-29T09:29:06;103087.34;;;21.33;44.87
56632;BME280;42503;39.928;-75.152;2022-10-29T09:31:21;103094.56;;;21.41;44.43
56632;BME280;42503;39.928;-75.152;2022-10-29T09:33:27;103040.84;;;21.15;44.66
56632;BME280;42503;39.928;-75.152;2022-10-29T09:35:38;103088.59;;;21.37;44.79
56632;BME280;42503;39.928;-75.152;2022-10-29T09:39:50;103104.47;;;21.37;44.45
56632;BME280;42503;39.928;-75.152;2022-10-29T09:41:53;103055.06;;;21.07;44.53
56632;BME280;42503;39.928;-75.152;2022-10-29T09:44:21;103082.91;;;21.25;44.61
56632;BME280;42503;39.928;-75.152;2022-10-29T09:49:27;103103.63;;;21.36;44.74
56632;BME280;42503;39.928;-75.152;2022-10-29T09:53:49;103086.06;;;21.36;44.42
56632;BME280;42503;39.928;-75.152;2022-10-29T09:55:51;103082.63;;;21.34;44.54
56632;BME280;42503;39.928;-75.152;2022-10-29T09:57:56;103086.50;;;21.33;44.48
56632;BME280;42503;39.928;-75.152;2022-10-29T10:00:06;103070.31;;;21.23;44.77
56632;BME280;42503;39.928;-75.152;2022-10-29T10:04:39;103085.88;;;21.30;44.93
56632;BME280;42503;39.928;-75.152;2022-10-29T10:09:04;103085.88;;;21.30;44.89
56632;BME280;42503;39.928;-75.152;2022-10-29T10:11:06;103082.22;;;21.30;44.64
56632;BME280;42503;39.928;-75.152;2022-10-29T10:13:12;103082.22;;;21.30;44.85
56632;BME280;42503;39.928;-75.152;2022-10-29T10:17:16;103062.09;;;21.28;44.74
56632;BME280;42503;39.928;-75.152;2022-10-29T10:19:22;103059.09;;;21.29;44.73
56632;BME280;42503;39.928;-75.152;2022-10-29T10:21:31;103067.44;;;21.29;44.74
56632;BME280;42503;39.928;-75.152;2022-10-29T10:23:45;103068.78;;;21.27;44.87
56632;BME280;42503;39.928;-75.152;2022-10-29T10:25:51;103032.31;;;21.10;44.37
56632;BME280;42503;39.928;-75.152;2022-10-29T10:27:55;103055.69;;;21.27;44.52
56632;BME280;42503;39.928;-75.152;2022-10-29T10:34:16;103072.63;;;21.26;44.87
56632;BME280;42503;39.928;-75.152;2022-10-29T10:36:21;103080.75;;;21.27;44.67
56632;BME280;42503;39.928;-75.152;2022-10-29T10:38:24;103061.31;;;21.21;44.70
56632;BME280;42503;39.928;-75.152;2022-10-29T10:40:26;103074.09;;;21.28;44.38
56632;BME280;42503;39.928;-75.152;2022-10-29T10:42:37;103036.66;;;21.06;44.70
56632;BME280;42503;39.928;-75.152;2022-10-29T10:45:28;103077.34;;;21.25;44.80
56632;BME280;42503;39.928;-75.152;2022-10-29T10:47:40;103069.38;;;21.29;44.38
56632;BME280;42503;39.928;-75.152;2022-10-29T10:49:43;103074.09;;;21.28;44.56
56632;BME280;42503;39.928;-75.152;2022-10-29T10:51:48;103046.50;;;21.09;44.37
56632;BME280;42503;39.928;-75.152;2022-10-29T10:53:53;103075.44;;;21.26;44.59
56632;BME280;42503;39.928;-75.152;2022-10-29T10:55:56;103069.63;;;21.27;44.58
56632;BME280;42503;39.928;-75.152;2022-10-29T10:58:12;103062.34;;;21.26;44.30
56632;BME280;42503;39.928;-75.152;2022-10-29T11:00:21;103062.34;;;21.26;44.32
56632;BME280;42503;39.928;-75.152;2022-10-29T11:04:32;103060.88;;;21.24;44.47
56632;BME280;42503;39.928;-75.152;2022-10-29T11:06:40;103056.16;;;21.24;44.49
56632;BME280;42503;39.928;-75.152;2022-10-29T11:09:09;103062.19;;;21.21;44.45
56632;BME280;42503;39.928;-75.152;2022-10-29T11:11:19;103067.28;;;21.24;44.53
56632;BME280;42503;39.928;-75.152;2022-10-29T11:13:29;103062.81;;;21.23;44.66
56632;BME280;42503;39.928;-75.152;2022-10-29T11:15:49;103063.91;;;21.22;44.46
56632;BME280;42503;39.928;-75.152;2022-10-29T11:18:00;103065.59;;;21.23;44.27
56632;BME280;42503;39.928;-75.152;2022-10-29T11:20:21;103071.16;;;21.23;44.23
56632;BME280;42503;39.928;-75.152;2022-10-29T11:24:56;103076.97;;;21.22;44.63
56632;BME280;42503;39.928;-75.152;2022-10-29T11:27:40;103074.19;;;21.22;44.78
56632;BME280;42503;39.928;-75.152;2022-10-29T11:30:08;103080.34;;;21.24;44.61
56632;BME280;42503;39.928;-75.152;2022-10-29T11:32:45;103082.28;;;21.23;44.17
56632;BME280;42503;39.928;-75.152;2022-10-29T11:37:46;103082.75;;;21.20;44.14
56632;BME280;42503;39.928;-75.152;2022-10-29T11:41:58;103083.22;;;21.17;44.29
56632;BME280;42503;39.928;-75.152;2022-10-29T11:43:59;103082.28;;;21.23;44.54
56632;BME280;42503;39.928;-75.152;2022-10-29T11:46:31;103083.22;;;21.17;44.57
56632;BME280;42503;39.928;-75.152;2022-10-29T11:50:58;103061.72;;;21.06;44.58